Latest Weather Observations for St Kilda Harbour RMYS

IDV60801

Issued at 8:05 pm EDT Monday 30 March 2015 (issued every 30 minutes, with the page automatically refreshed every 10 minutes)

About weather observations | Map of weather stations | Latest weather observations for VIC | Other Formats
Station Details ID: 086220 Name: ST KILDA HARBOUR - RMYS Lat: -37.86 Lon: 144.96 Height: 6.4 m
Data from the previous 72 hours. | See also: Recent months for locations in Victoria
Date/Time
EDT
Temp
°C
App
Temp
°C
Dew
Point
Rel
Hum
%
Delta-T
°C
Wind Press
QNH
hPa
Press
MSL
hPa
Rain
since 9 am
mm
Dir
 
Spd
km/h
Gust
km/h
Spd
kts
Gust
kts
30/08:00pm - - - - - SSE 17 19 9 10 - - -
30/07:30pm - - - - - S 15 17 8 9 - - -
30/07:00pm - - - - - SSE 11 13 6 7 - - -
30/06:30pm - - - - - SSE 13 15 7 8 - - -
30/06:00pm - - - - - S 17 19 9 10 - - -
30/05:30pm - - - - - S 22 26 12 14 - - -
30/05:00pm - - - - - S 26 30 14 16 - - -
30/04:30pm - - - - - S 26 30 14 16 - - -
30/04:00pm - - - - - SSE 15 17 8 9 - - -
30/03:30pm - - - - - S 17 19 9 10 - - -
30/03:00pm - - - - - S 17 20 9 11 - - -
30/02:30pm - - - - - SSE 19 20 10 11 - - -
30/02:00pm - - - - - S 20 22 11 12 - - -
30/01:30pm - - - - - S 24 26 13 14 - - -
30/01:00pm - - - - - SSW 19 20 10 11 - - -
30/12:30pm - - - - - SSW 13 15 7 8 - - -
30/12:00pm - - - - - SSW 9 9 5 5 - - -
30/11:30am - - - - - WSW 2 4 1 2 - - -
30/11:00am - - - - - SW 6 7 3 4 - - -
30/10:30am - - - - - WSW 7 9 4 5 - - -
30/10:00am - - - - - NNW 4 6 2 3 - - -
30/09:30am - - - - - CALM 0 2 0 1 - - -
30/09:00am - - - - - NNW 4 7 2 4 - - -
30/08:30am - - - - - CALM 0 0 0 0 - - -
30/08:00am - - - - - NNE 6 7 3 4 - - -
30/07:30am - - - - - NNE 6 7 3 4 - - -
30/07:00am - - - - - NNE 2 4 1 2 - - -
30/06:30am - - - - - NNE 4 6 2 3 - - -
30/06:00am - - - - - NNE 7 9 4 5 - - -
30/05:30am - - - - - NNE 7 9 4 5 - - -
30/05:00am - - - - - N 4 6 2 3 - - -
30/04:30am - - - - - NNE 6 7 3 4 - - -
30/04:00am - - - - - N 4 7 2 4 - - -
30/03:30am - - - - - NW 6 7 3 4 - - -
30/03:00am - - - - - NNW 7 9 4 5 - - -
30/02:30am - - - - - NNW 4 6 2 3 - - -
30/02:00am - - - - - N 6 7 3 4 - - -
30/01:30am - - - - - NNW 6 7 3 4 - - -
30/01:00am - - - - - N 4 4 2 2 - - -
30/12:30am - - - - - N 4 4 2 2 - - -
30/12:00am - - - - - NNE 2 4 1 2 - - -
 
Date/Time
EDT
Temp
°C
App
Temp
°C
Dew
Point
Rel
Hum
%
Delta-T
°C
Wind Press
QNH
hPa
Press
MSL
hPa
Rain
since 9 am
mm
Dir
 
Spd
km/h
Gust
km/h
Spd
kts
Gust
kts
29/11:30pm - - - - - ENE 4 6 2 3 - - -
29/11:00pm - - - - - ESE 4 7 2 4 - - -
29/10:30pm - - - - - ESE 7 9 4 5 - - -
29/10:00pm - - - - - ESE 9 11 5 6 - - -
29/09:30pm - - - - - ESE 13 20 7 11 - - -
29/09:00pm - - - - - SE 19 26 10 14 - - -
29/08:30pm - - - - - ESE 19 24 10 13 - - -
29/08:00pm - - - - - S 20 26 11 14 - - -
29/07:30pm - - - - - S 26 32 14 17 - - -
29/07:00pm - - - - - S 19 20 10 11 - - -
29/06:30pm - - - - - S 22 26 12 14 - - -
29/06:00pm - - - - - S 24 26 13 14 - - -
29/05:30pm - - - - - S 22 26 12 14 - - -
29/05:00pm - - - - - S 22 26 12 14 - - -
29/04:30pm - - - - - SSE 24 30 13 16 - - -
29/04:00pm - - - - - SSE 22 28 12 15 - - -
29/03:30pm - - - - - SSE 19 20 10 11 - - -
29/03:00pm - - - - - S 17 20 9 11 - - -
29/02:30pm - - - - - S 20 24 11 13 - - -
29/02:00pm - - - - - S 22 26 12 14 - - -
29/01:30pm - - - - - S 22 24 12 13 - - -
29/01:00pm - - - - - S 20 24 11 13 - - -
29/12:30pm - - - - - S 17 20 9 11 - - -
29/12:00pm - - - - - SSE 9 9 5 5 - - -
29/11:30am - - - - - SW 6 7 3 4 - - -
29/11:00am - - - - - NNE 4 7 2 4 - - -
29/10:30am - - - - - NNE 7 11 4 6 - - -
29/10:00am - - - - - NE 9 11 5 6 - - -
29/09:30am - - - - - NNE 9 13 5 7 - - -
29/09:00am - - - - - NNE 11 17 6 9 - - -
29/08:30am - - - - - NNE 13 17 7 9 - - -
29/08:00am - - - - - NNE 9 15 5 8 - - -
29/07:30am - - - - - NNE 11 13 6 7 - - -
29/07:00am - - - - - NNE 11 15 6 8 - - -
29/06:30am - - - - - NNE 9 13 5 7 - - -
29/06:00am - - - - - NNE 7 11 4 6 - - -
29/05:30am - - - - - NNE 7 9 4 5 - - -
29/05:00am - - - - - NNE 9 11 5 6 - - -
29/04:30am - - - - - NNE 9 13 5 7 - - -
29/04:00am - - - - - NNE 7 11 4 6 - - -
29/03:30am - - - - - NNE 7 9 4 5 - - -
29/03:00am - - - - - N 7 9 4 5 - - -
29/02:30am - - - - - NNE 7 9 4 5 - - -
29/02:00am - - - - - N 7 9 4 5 - - -
29/01:30am - - - - - NE 6 7 3 4 - - -
29/01:00am - - - - - NE 4 6 2 3 - - -
29/12:30am - - - - - ESE 6 9 3 5 - - -
29/12:00am - - - - - ESE 6 7 3 4 - - -
 
Date/Time
EDT
Temp
°C
App
Temp
°C
Dew
Point
Rel
Hum
%
Delta-T
°C
Wind Press
QNH
hPa
Press
MSL
hPa
Rain
since 9 am
mm
Dir
 
Spd
km/h
Gust
km/h
Spd
kts
Gust
kts
28/11:30pm - - - - - SE 6 7 3 4 - - -
28/11:00pm - - - - - S 6 9 3 5 - - -
28/10:30pm - - - - - SSE 4 6 2 3 - - -
28/10:00pm - - - - - NE 4 6 2 3 - - -
28/09:30pm - - - - - E 6 9 3 5 - - -
28/09:00pm - - - - - ESE 6 7 3 4 - - -
28/08:30pm - - - - - SE 7 11 4 6 - - -
28/08:00pm - - - - - SSE 15 17 8 9 - - -
28/07:30pm - - - - - SSE 17 19 9 10 - - -
28/07:00pm - - - - - SSE 17 19 9 10 - - -
28/06:30pm - - - - - SSE 17 20 9 11 - - -
28/06:00pm - - - - - S 17 20 9 11 - - -
28/05:30pm - - - - - S 17 19 9 10 - - -
28/05:00pm - - - - - S 17 19 9 10 - - -
28/04:30pm - - - - - S 19 20 10 11 - - -
28/04:00pm - - - - - S 19 20 10 11 - - -
28/03:30pm - - - - - S 15 17 8 9 - - -
28/03:00pm - - - - - S 11 13 6 7 - - -
28/02:30pm - - - - - S 9 11 5 6 - - -
28/02:00pm - - - - - SSE 7 11 4 6 - - -
28/01:30pm - - - - - SSE 6 9 3 5 - - -
28/01:00pm - - - - - SSE 6 9 3 5 - - -
28/12:30pm - - - - - S 7 11 4 6 - - -
28/12:00pm - - - - - SSW 9 11 5 6 - - -
28/11:30am - - - - - SW 11 15 6 8 - - -
28/11:00am - - - - - SW 11 17 6 9 - - -
28/10:30am - - - - - WSW 15 19 8 10 - - -
28/10:00am - - - - - W 13 15 7 8 - - -
28/09:30am - - - - - WSW 15 17 8 9 - - -
28/09:00am - - - - - WSW 19 22 10 12 - - -
28/08:30am - - - - - WSW 24 28 13 15 - - -
28/08:00am - - - - - SW 22 24 12 13 - - -
28/07:30am - - - - - SW 24 28 13 15 - - -
28/07:00am - - - - - WSW 24 30 13 16 - - -
28/06:30am - - - - - WSW 26 30 14 16 - - -
28/06:00am - - - - - WSW 24 30 13 16 - - -
28/05:30am - - - - - SW 30 35 16 19 - - -
28/05:00am - - - - - WSW 32 37 17 20 - - -
28/04:30am - - - - - WSW 32 35 17 19 - - -
28/04:00am - - - - - WSW 33 39 18 21 - - -
28/03:30am - - - - - SW 30 35 16 19 - - -
28/03:00am - - - - - WSW 28 33 15 18 - - -
28/02:30am - - - - - W 22 28 12 15 - - -
28/02:00am - - - - - W 19 22 10 12 - - -
28/01:30am - - - - - WSW 26 32 14 17 - - -
28/01:00am - - - - - WSW 28 33 15 18 - - -
28/12:30am - - - - - WSW 26 32 14 17 - - -
28/12:00am - - - - - WSW 26 30 14 16 - - -
 
Date/Time
EDT
Temp
°C
App
Temp
°C
Dew
Point
Rel
Hum
%
Delta-T
°C
Wind Press
QNH
hPa
Press
MSL
hPa
Rain
since 9 am
mm
Dir
 
Spd
km/h
Gust
km/h
Spd
kts
Gust
kts
27/11:30pm - - - - - WSW 26 32 14 17 - - -
27/11:00pm - - - - - SW 22 26 12 14 - - -
27/10:30pm - - - - - SSW 26 35 14 19 - - -
27/10:00pm - - - - - SSW 28 35 15 19 - - -
27/09:30pm - - - - - SW 24 30 13 16 - - -
27/09:00pm - - - - - SSW 33 39 18 21 - - -
27/08:30pm - - - - - SW 26 30 14 16 - - -

Other Formats:

Comma delimited format used in spreadsheet applications
http://www.bom.gov.au/fwo/IDV60801/IDV60801.95864.axf

JavaScript Object Notation format (JSON) in row-major order
http://www.bom.gov.au/fwo/IDV60801/IDV60801.95864.json